createdAt,value
2023-05-06T00:00:02.477Z,1.90
2023-05-06T00:02:30.954Z,2.00
2023-05-06T00:04:59.395Z,2.00
2023-05-06T00:07:27.789Z,2.07
2023-05-06T00:09:56.222Z,1.70
2023-05-06T00:12:24.595Z,2.00
2023-05-06T00:14:52.995Z,2.30
2023-05-06T00:17:22.762Z,1.93
2023-05-06T00:19:52.428Z,2.10
2023-05-06T00:22:20.909Z,2.10
2023-05-06T00:24:49.288Z,2.30
2023-05-06T00:27:17.732Z,2.13
2023-05-06T00:29:46.186Z,1.83
2023-05-06T00:32:14.661Z,2.10
2023-05-06T00:34:44.540Z,2.00
2023-05-06T00:37:12.928Z,2.00
2023-05-06T00:39:41.292Z,2.10
2023-05-06T00:42:09.699Z,1.90
2023-05-06T00:44:38.075Z,2.33
2023-05-06T00:47:06.649Z,2.03
2023-05-06T00:49:35.593Z,1.83
2023-05-06T00:52:05.759Z,2.00
2023-05-06T00:54:34.262Z,1.70
2023-05-06T00:57:02.774Z,1.80
2023-05-06T00:59:31.165Z,2.13
2023-05-06T01:01:59.636Z,1.77
2023-05-06T01:04:28.581Z,1.90
2023-05-06T01:07:00.983Z,1.90
2023-05-06T01:09:34.926Z,1.60
2023-05-06T01:12:08.359Z,1.87
2023-05-06T01:14:38.699Z,1.80
2023-05-06T01:17:09.417Z,1.90
2023-05-06T01:19:42.882Z,1.40
2023-05-06T01:22:12.089Z,1.50
2023-05-06T01:24:42.613Z,1.70
2023-05-06T01:27:11.616Z,1.50
2023-05-06T01:29:41.735Z,1.50
2023-05-06T01:32:15.873Z,1.60
2023-05-06T01:34:46.421Z,2.07
2023-05-06T01:37:19.420Z,1.50
2023-05-06T01:39:49.812Z,1.83
2023-05-06T01:42:18.554Z,2.00
2023-05-06T01:44:47.682Z,1.53
2023-05-06T01:47:17.133Z,1.60
2023-05-06T01:49:45.743Z,1.63
2023-05-06T01:52:14.092Z,1.60
2023-05-06T01:54:42.454Z,1.40
2023-05-06T01:57:12.194Z,1.30
2023-05-06T01:59:40.573Z,1.70
2023-05-06T02:02:09.250Z,1.47
2023-05-06T02:04:37.886Z,1.50
2023-05-06T02:07:06.838Z,1.50
2023-05-06T02:09:35.250Z,1.40
2023-05-06T02:12:03.627Z,1.40
2023-05-06T02:14:33.493Z,1.53
2023-05-06T02:17:04.726Z,1.47
2023-05-06T02:19:33.130Z,1.50
2023-05-06T02:22:01.540Z,1.67
2023-05-06T02:24:29.926Z,1.70
2023-05-06T02:26:58.321Z,1.40
2023-05-06T02:29:26.712Z,1.67
2023-05-06T02:31:56.533Z,1.33
2023-05-06T02:34:24.959Z,1.37
2023-05-06T02:36:53.342Z,1.73
2023-05-06T02:39:21.734Z,1.70
2023-05-06T02:41:50.321Z,1.40
2023-05-06T02:44:18.720Z,1.60
2023-05-06T02:46:47.125Z,1.60
2023-05-06T02:49:16.876Z,1.43
2023-05-06T02:51:45.264Z,1.37
2023-05-06T02:54:13.629Z,1.40
2023-05-06T02:56:43.293Z,1.30
2023-05-06T02:59:11.761Z,1.60
2023-05-06T03:01:40.261Z,1.50
2023-05-06T03:04:08.650Z,1.63
2023-05-06T03:06:38.398Z,1.40
2023-05-06T03:09:06.819Z,1.50
2023-05-06T03:11:35.223Z,1.40
2023-05-06T03:14:03.604Z,1.63
2023-05-06T03:16:32.017Z,1.50
2023-05-06T03:19:00.398Z,1.30
2023-05-06T03:21:28.872Z,1.30
2023-05-06T03:23:58.720Z,1.30
2023-05-06T03:26:27.194Z,1.30
2023-05-06T03:28:55.587Z,1.10
2023-05-06T03:31:23.993Z,1.20
2023-05-06T03:33:52.390Z,1.40
2023-05-06T03:36:21.997Z,1.50
2023-05-06T03:38:50.366Z,1.50
2023-05-06T03:41:20.116Z,1.50
2023-05-06T03:43:48.590Z,1.60
2023-05-06T03:46:17.088Z,1.23
2023-05-06T03:48:45.484Z,1.40
2023-05-06T03:51:13.942Z,1.40
2023-05-06T03:53:42.318Z,1.50
2023-05-06T03:56:10.677Z,1.17
2023-05-06T03:58:40.452Z,1.30
2023-05-06T04:01:08.865Z,1.43
2023-05-06T04:03:37.317Z,1.43
2023-05-06T04:06:06.071Z,1.30
2023-05-06T04:08:34.493Z,1.40
2023-05-06T04:11:05.863Z,1.40
2023-05-06T04:13:34.191Z,1.30
2023-05-06T04:16:04.149Z,1.20
2023-05-06T04:18:32.926Z,1.40
2023-05-06T04:21:01.318Z,1.23
2023-05-06T04:23:29.745Z,1.20
2023-05-06T04:25:58.218Z,1.40
2023-05-06T04:28:26.621Z,1.27
2023-05-06T04:30:55.025Z,1.20
2023-05-06T04:33:25.641Z,1.30
2023-05-06T04:35:54.818Z,1.20
2023-05-06T04:38:25.874Z,1.23
2023-05-06T04:40:55.479Z,1.63
2023-05-06T04:43:23.907Z,1.43
2023-05-06T04:45:52.881Z,1.53
2023-05-06T04:48:22.363Z,1.47
2023-05-06T04:50:52.478Z,1.87
2023-05-06T04:53:20.944Z,1.33
2023-05-06T04:55:49.336Z,1.60
2023-05-06T04:58:18.976Z,1.63
2023-05-06T05:00:47.358Z,1.80
2023-05-06T05:03:15.947Z,1.50
2023-05-06T05:05:45.538Z,1.50
2023-05-06T05:08:15.331Z,1.40
2023-05-06T05:10:44.125Z,1.30
2023-05-06T05:13:12.559Z,1.60
2023-05-06T05:15:40.941Z,1.50
2023-05-06T05:18:09.406Z,1.40
2023-05-06T05:20:37.937Z,1.40
2023-05-06T05:23:06.845Z,1.20
2023-05-06T05:25:36.663Z,1.43
2023-05-06T05:28:05.209Z,1.30
2023-05-06T05:30:33.603Z,1.63
2023-05-06T05:33:02.068Z,1.30
2023-05-06T05:35:30.546Z,1.40
2023-05-06T05:37:58.970Z,1.27
2023-05-06T05:40:27.440Z,1.43
2023-05-06T05:42:57.287Z,1.37
2023-05-06T05:45:25.697Z,1.17
2023-05-06T05:47:54.923Z,1.30
2023-05-06T05:50:23.418Z,1.47
2023-05-06T05:52:51.795Z,1.30
2023-05-06T05:55:20.203Z,1.30
2023-05-06T05:57:48.540Z,1.30
2023-05-06T06:00:19.126Z,1.20
2023-05-06T06:02:47.576Z,1.33
2023-05-06T06:05:16.087Z,1.67
2023-05-06T06:07:45.399Z,1.30
2023-05-06T06:10:15.397Z,1.30
2023-05-06T06:12:44.676Z,1.47
2023-05-06T06:15:13.654Z,1.17
2023-05-06T06:17:43.945Z,1.30
2023-05-06T06:20:12.954Z,1.23
2023-05-06T06:22:41.665Z,1.23
2023-05-06T06:25:10.768Z,1.20
2023-05-06T06:27:39.355Z,1.20
2023-05-06T06:30:08.451Z,1.43
2023-05-06T06:32:36.937Z,1.20
2023-05-06T06:35:07.264Z,1.17
2023-05-06T06:37:35.910Z,1.30
2023-05-06T06:40:04.501Z,1.20
2023-05-06T06:42:32.906Z,1.20
2023-05-06T06:45:01.407Z,1.20
2023-05-06T06:47:29.853Z,1.50
2023-05-06T06:49:58.268Z,1.20
2023-05-06T06:52:28.100Z,1.33
2023-05-06T06:54:56.474Z,1.47
2023-05-06T06:57:25.056Z,1.20
2023-05-06T06:59:53.780Z,1.10
2023-05-06T07:02:22.948Z,1.40
2023-05-06T07:04:51.468Z,1.10
2023-05-06T07:07:19.870Z,1.00
2023-05-06T07:09:49.603Z,1.30
2023-05-06T07:12:18.055Z,1.50
2023-05-06T07:14:46.470Z,1.10
2023-05-06T07:17:14.904Z,1.10
2023-05-06T07:19:43.436Z,1.20
2023-05-06T07:22:11.800Z,1.20
2023-05-06T07:24:40.280Z,1.10
2023-05-06T07:27:10.129Z,1.23
2023-05-06T07:29:38.529Z,1.50
2023-05-06T07:32:07.238Z,1.30
2023-05-06T07:34:36.170Z,1.50
2023-05-06T07:37:04.917Z,1.20
2023-05-06T07:39:33.291Z,1.43
2023-05-06T07:42:01.766Z,1.37
2023-05-06T07:44:31.649Z,1.70
2023-05-06T07:47:00.289Z,1.50
2023-05-06T07:49:30.905Z,1.80
2023-05-06T07:51:59.318Z,2.40
2023-05-06T07:54:27.715Z,2.73
2023-05-06T07:56:56.072Z,2.57
2023-05-06T07:59:24.441Z,2.87
2023-05-06T08:01:54.235Z,3.13
2023-05-06T08:04:22.718Z,3.93
2023-05-06T08:06:51.163Z,3.93
2023-05-06T08:09:23.056Z,3.50
2023-05-06T08:11:51.814Z,4.87
2023-05-06T08:14:20.186Z,6.57
2023-05-06T08:16:48.647Z,6.83
2023-05-06T08:19:18.518Z,9.07
2023-05-06T08:21:46.887Z,9.23
2023-05-06T08:24:15.290Z,13.77
2023-05-06T08:26:43.752Z,13.47
2023-05-06T08:29:12.204Z,14.90
2023-05-06T08:31:40.830Z,15.63
2023-05-06T08:34:09.294Z,15.27
2023-05-06T08:36:39.169Z,15.80
2023-05-06T08:39:07.532Z,17.67
2023-05-06T08:41:36.381Z,18.30
2023-05-06T08:44:05.357Z,20.10
2023-05-06T08:46:33.738Z,20.63
2023-05-06T08:49:02.464Z,19.63
2023-05-06T08:51:32.517Z,21.10
2023-05-06T08:54:03.593Z,19.53
2023-05-06T08:56:34.570Z,19.13
2023-05-06T08:59:02.961Z,19.30
2023-05-06T09:01:31.442Z,18.93
2023-05-06T09:04:00.389Z,19.90
2023-05-06T09:06:28.873Z,20.10
2023-05-06T09:08:57.742Z,21.27
2023-05-06T09:11:29.386Z,19.20
2023-05-06T09:14:11.070Z,19.40
2023-05-06T09:16:40.203Z,17.80
2023-05-06T09:19:08.709Z,19.40
2023-05-06T09:21:38.054Z,19.20
2023-05-06T09:24:07.128Z,20.30
2023-05-06T09:26:38.196Z,22.03
2023-05-06T09:29:07.048Z,18.00
2023-05-06T09:31:35.661Z,18.20
2023-05-06T09:34:04.021Z,14.90
2023-05-06T09:36:32.443Z,16.27
2023-05-06T09:39:00.934Z,15.80
2023-05-06T09:41:29.316Z,17.53
2023-05-06T09:43:59.269Z,16.17
2023-05-06T09:46:28.552Z,18.17
2023-05-06T09:48:58.764Z,17.57
2023-05-06T09:51:28.824Z,14.33
2023-05-06T09:53:58.712Z,14.17
2023-05-06T09:56:27.660Z,14.70
2023-05-06T09:58:56.540Z,16.30
2023-05-06T10:01:36.216Z,17.93
2023-05-06T10:04:07.530Z,17.53
2023-05-06T10:06:36.923Z,16.57
2023-05-06T10:09:06.347Z,18.33
2023-05-06T10:11:34.921Z,16.63
2023-05-06T10:14:03.806Z,15.70
2023-05-06T10:16:35.865Z,15.93
2023-05-06T10:19:05.006Z,18.50
2023-05-06T10:21:34.298Z,20.93
2023-05-06T10:24:09.014Z,18.17
2023-05-06T10:26:38.379Z,18.00
2023-05-06T10:29:10.711Z,16.67
2023-05-06T10:31:42.371Z,18.33
2023-05-06T10:34:11.346Z,17.97
2023-05-06T10:36:40.544Z,18.03
2023-05-06T10:39:13.628Z,18.87
2023-05-06T10:41:42.074Z,19.57
2023-05-06T10:44:10.557Z,18.53
2023-05-06T10:49:33.178Z,19.60
2023-05-06T10:52:14.781Z,19.23
2023-05-06T10:54:49.788Z,19.87
2023-05-06T10:57:18.201Z,19.37
2023-05-06T10:59:47.816Z,17.40
2023-05-06T11:02:16.486Z,15.40
2023-05-06T11:04:51.618Z,15.80
2023-05-06T11:07:23.826Z,16.13
2023-05-06T11:09:59.066Z,16.53
2023-05-06T11:12:45.941Z,16.13
2023-05-06T11:15:21.409Z,15.70
2023-05-06T11:17:49.836Z,16.07
2023-05-06T11:20:23.516Z,15.67
2023-05-06T11:22:51.941Z,14.90
2023-05-06T11:25:38.915Z,14.33
2023-05-06T11:28:09.011Z,15.30
2023-05-06T11:30:38.340Z,12.53
2023-05-06T11:33:07.442Z,13.83
2023-05-06T11:35:40.271Z,14.40
2023-05-06T11:38:08.702Z,13.47
2023-05-06T11:40:37.176Z,14.50
2023-05-06T11:43:12.018Z,12.47
2023-05-06T11:45:44.169Z,13.33
2023-05-06T11:48:16.030Z,12.33
2023-05-06T11:50:48.934Z,11.60
2023-05-06T11:53:19.043Z,13.80
2023-05-06T11:55:48.062Z,11.68
2023-05-06T11:58:17.153Z,10.60
2023-05-06T12:00:51.391Z,10.82
2023-05-06T12:03:20.566Z,10.27
2023-05-06T12:05:51.147Z,13.20
2023-05-06T12:08:27.402Z,13.15
2023-05-06T12:10:57.307Z,11.40
2023-05-06T12:13:25.798Z,11.70
2023-05-06T12:15:55.902Z,11.20
2023-05-06T12:18:25.401Z,12.60
2023-05-06T12:20:56.591Z,11.03
2023-05-06T12:23:25.012Z,10.80
2023-05-06T12:26:02.436Z,9.07
2023-05-06T12:28:30.884Z,8.45
2023-05-06T12:30:59.493Z,10.45
2023-05-06T12:33:27.875Z,10.45
2023-05-06T12:36:08.307Z,10.75
2023-05-06T12:38:36.677Z,11.20
2023-05-06T12:41:07.007Z,8.70
2023-05-06T12:43:35.401Z,8.80
2023-05-06T12:46:07.275Z,8.82
2023-05-06T12:48:35.722Z,9.07
2023-05-06T12:53:57.504Z,10.63
2023-05-06T12:56:25.905Z,11.48
2023-05-06T12:58:57.762Z,10.93
2023-05-06T13:01:26.194Z,11.80
2023-05-06T13:03:55.586Z,11.88
2023-05-06T13:06:24.069Z,10.30
2023-05-06T13:08:52.626Z,9.75
2023-05-06T13:11:22.478Z,9.40
2023-05-06T13:13:51.117Z,10.25
2023-05-06T13:16:19.584Z,10.07
2023-05-06T13:18:47.986Z,9.85
2023-05-06T13:21:16.457Z,10.18
2023-05-06T13:23:47.758Z,9.55
2023-05-06T13:26:17.387Z,9.05
2023-05-06T13:28:47.412Z,8.00
2023-05-06T13:31:15.904Z,9.80
2023-05-06T13:33:44.282Z,9.18
2023-05-06T13:36:12.660Z,8.88
2023-05-06T13:38:41.144Z,7.97
2023-05-06T13:41:09.794Z,8.30
2023-05-06T13:43:38.182Z,8.70
2023-05-06T13:46:09.878Z,9.38
2023-05-06T13:48:38.323Z,9.55
2023-05-06T13:51:07.026Z,7.97
2023-05-06T13:53:36.573Z,8.63
2023-05-06T13:56:05.517Z,7.78
2023-05-06T13:58:33.950Z,8.13
2023-05-06T14:01:02.941Z,8.23
2023-05-06T14:03:32.753Z,7.43
2023-05-06T14:06:01.364Z,6.55
2023-05-06T14:08:29.807Z,7.20
2023-05-06T14:10:58.158Z,7.45
2023-05-06T14:13:26.854Z,8.98
2023-05-06T14:15:56.806Z,9.10
2023-05-06T14:18:26.598Z,8.82
2023-05-06T14:20:56.571Z,9.60
2023-05-06T14:23:24.910Z,9.05
2023-05-06T14:25:53.310Z,9.18
2023-05-06T14:28:21.743Z,10.15
2023-05-06T14:30:50.824Z,9.05
2023-05-06T14:33:19.477Z,8.68
2023-05-06T14:35:48.783Z,8.68
2023-05-06T14:38:19.829Z,8.93
2023-05-06T14:40:48.283Z,8.70
2023-05-06T14:43:16.678Z,9.52
2023-05-06T14:45:45.161Z,9.05
2023-05-06T14:48:13.566Z,8.70
2023-05-06T14:50:41.937Z,8.90
2023-05-06T14:53:10.348Z,8.98
2023-05-06T14:55:40.783Z,8.10
2023-05-06T14:58:09.214Z,7.68
2023-05-06T15:00:37.793Z,9.23
2023-05-06T15:03:06.428Z,8.07
2023-05-06T15:05:37.160Z,8.38
2023-05-06T15:08:05.656Z,7.88
2023-05-06T15:10:34.087Z,7.68
2023-05-06T15:13:03.870Z,8.45
2023-05-06T15:15:32.310Z,8.27
2023-05-06T15:18:00.758Z,8.10
2023-05-06T15:20:29.320Z,8.02
2023-05-06T15:22:57.714Z,7.72
2023-05-06T15:25:34.861Z,8.40
2023-05-06T15:28:06.597Z,7.32
2023-05-06T15:30:35.018Z,7.15
2023-05-06T15:33:03.767Z,7.13
2023-05-06T15:35:32.661Z,6.68
2023-05-06T15:38:01.009Z,7.28
2023-05-06T15:40:29.386Z,5.82
2023-05-06T15:42:57.782Z,6.65
2023-05-06T15:45:27.592Z,7.20
2023-05-06T15:47:56.302Z,6.00
2023-05-06T15:50:33.318Z,6.07
2023-05-06T15:53:02.788Z,6.53
2023-05-06T15:55:35.301Z,5.57
2023-05-06T15:58:12.136Z,5.80
2023-05-06T16:00:42.029Z,5.97
2023-05-06T16:03:12.249Z,5.63
2023-05-06T16:05:41.021Z,5.40
2023-05-06T16:08:09.432Z,6.57
2023-05-06T16:10:37.821Z,6.95
2023-05-06T16:13:06.327Z,5.60
2023-05-06T16:15:35.566Z,5.38
2023-05-06T16:18:05.768Z,5.32
2023-05-06T16:20:34.453Z,4.75
2023-05-06T16:23:02.825Z,5.30
2023-05-06T16:25:31.280Z,4.40
2023-05-06T16:27:59.743Z,3.92
2023-05-06T16:30:28.226Z,4.43
2023-05-06T16:32:56.714Z,4.30
2023-05-06T16:35:26.761Z,4.05
2023-05-06T16:37:55.123Z,3.83
2023-05-06T16:40:23.520Z,4.03
2023-05-06T16:42:52.005Z,4.35
2023-05-06T16:45:20.602Z,4.30
2023-05-06T16:47:49.290Z,4.10
2023-05-06T16:50:17.746Z,4.55
2023-05-06T16:52:47.508Z,4.32
2023-05-06T16:55:16.155Z,4.07
2023-05-06T16:57:44.573Z,4.60
2023-05-06T17:00:13.782Z,4.05
2023-05-06T17:02:42.473Z,4.57
2023-05-06T17:05:11.035Z,5.70
2023-05-06T17:07:39.411Z,5.38
2023-05-06T17:10:10.023Z,4.63
2023-05-06T17:12:38.612Z,4.40
2023-05-06T17:15:07.579Z,5.32
2023-05-06T17:17:36.029Z,5.50
2023-05-06T17:20:05.302Z,5.93
2023-05-06T17:22:33.738Z,3.92
2023-05-06T17:25:02.205Z,4.57
2023-05-06T17:27:32.089Z,4.47
2023-05-06T17:30:01.228Z,4.25
2023-05-06T17:32:29.691Z,3.90
2023-05-06T17:34:58.251Z,3.60
2023-05-06T17:37:26.660Z,3.55
2023-05-06T17:39:55.128Z,4.07
2023-05-06T17:42:23.575Z,4.10
2023-05-06T17:44:53.392Z,3.90
2023-05-06T17:47:22.938Z,4.22
2023-05-06T17:49:52.261Z,4.40
2023-05-06T17:52:20.667Z,4.05
2023-05-06T17:55:05.683Z,4.07
2023-05-06T17:57:38.450Z,3.55
2023-05-06T18:00:09.238Z,4.18
2023-05-06T18:02:38.035Z,3.67
2023-05-06T18:05:06.875Z,3.53
2023-05-06T18:07:36.317Z,4.13
2023-05-06T18:10:04.692Z,3.40
2023-05-06T18:12:33.150Z,3.65
2023-05-06T18:15:01.844Z,3.88
2023-05-06T18:17:31.615Z,3.22
2023-05-06T18:20:00.127Z,2.97
2023-05-06T18:22:28.556Z,3.50
2023-05-06T18:24:56.895Z,3.08
2023-05-06T18:27:25.306Z,3.20
2023-05-06T18:29:53.731Z,3.28
2023-05-06T18:32:22.337Z,3.33
2023-05-06T18:34:52.160Z,4.80
2023-05-06T18:37:20.587Z,8.95
2023-05-06T18:39:48.942Z,9.75
2023-05-06T18:42:17.310Z,8.93
2023-05-06T18:44:45.732Z,5.93
2023-05-06T18:47:14.082Z,5.53
2023-05-06T18:49:42.426Z,5.38
2023-05-06T18:52:14.545Z,4.63
2023-05-06T18:54:42.977Z,5.43
2023-05-06T18:57:11.445Z,4.88
2023-05-06T18:59:39.876Z,4.28
2023-05-06T19:02:09.068Z,5.45
2023-05-06T19:04:38.070Z,5.72
2023-05-06T19:07:06.496Z,5.35
2023-05-06T19:09:37.206Z,6.05
2023-05-06T19:12:05.797Z,4.75
2023-05-06T19:14:34.661Z,5.10
2023-05-06T19:17:03.324Z,5.00
2023-05-06T19:19:31.933Z,4.72
2023-05-06T19:22:01.796Z,4.38
2023-05-06T19:24:31.888Z,4.93
2023-05-06T19:27:01.949Z,4.40
2023-05-06T19:29:30.337Z,4.95
2023-05-06T19:31:58.712Z,4.50
2023-05-06T19:34:27.092Z,4.33
2023-05-06T19:36:55.717Z,4.43
2023-05-06T19:39:24.146Z,4.65
2023-05-06T19:41:53.787Z,4.50
2023-05-06T19:44:23.574Z,4.55
2023-05-06T19:46:54.320Z,5.07
2023-05-06T19:49:22.739Z,4.95
2023-05-06T19:51:51.155Z,4.20
2023-05-06T19:54:19.941Z,4.70
2023-05-06T19:56:48.389Z,5.80
2023-05-06T19:59:17.620Z,5.72
2023-05-06T20:01:47.497Z,5.80
2023-05-06T20:04:16.010Z,5.37
2023-05-06T20:06:44.531Z,5.18
2023-05-06T20:09:12.874Z,4.93
2023-05-06T20:11:41.228Z,4.25
2023-05-06T20:14:09.644Z,5.00
2023-05-06T20:16:38.947Z,4.50
2023-05-06T20:19:08.963Z,4.17
2023-05-06T20:21:37.900Z,5.00
2023-05-06T20:24:06.639Z,4.00
2023-05-06T20:26:35.023Z,4.33
2023-05-06T20:29:03.396Z,4.40
2023-05-06T20:31:32.029Z,4.10
2023-05-06T20:34:00.483Z,4.17
2023-05-06T20:36:30.912Z,3.83
2023-05-06T20:39:00.638Z,4.03
2023-05-06T20:41:29.069Z,4.20
2023-05-06T20:43:58.202Z,4.10
2023-05-06T20:46:29.263Z,4.00
2023-05-06T20:48:57.682Z,4.00
2023-05-06T20:51:26.188Z,4.03
2023-05-06T20:53:57.786Z,4.33
2023-05-06T20:56:27.860Z,4.30
2023-05-06T20:58:57.014Z,5.70
2023-05-06T21:01:26.555Z,4.97
2023-05-06T21:03:54.988Z,8.10
2023-05-06T21:06:23.382Z,4.80
2023-05-06T21:08:52.127Z,5.90
2023-05-06T21:11:21.925Z,4.50
2023-05-06T21:13:50.509Z,4.50
2023-05-06T21:16:19.182Z,3.93
2023-05-06T21:18:47.647Z,4.07
2023-05-06T21:21:16.081Z,4.20
2023-05-06T21:23:44.473Z,3.37
2023-05-06T21:26:13.400Z,4.20
2023-05-06T21:28:43.224Z,4.10
2023-05-06T21:31:11.715Z,3.47
2023-05-06T21:33:40.130Z,3.90
2023-05-06T21:36:08.698Z,3.47
2023-05-06T21:38:37.134Z,2.83
2023-05-06T21:41:05.817Z,2.73
2023-05-06T21:43:34.221Z,2.83
2023-05-06T21:46:05.614Z,2.87
2023-05-06T21:48:34.042Z,2.90
2023-05-06T21:51:04.657Z,3.07
2023-05-06T21:53:34.056Z,3.30
2023-05-06T21:56:02.578Z,3.23
2023-05-06T21:58:31.062Z,4.27
2023-05-06T22:00:59.443Z,3.53
2023-05-06T22:03:30.675Z,3.23
2023-05-06T22:05:59.099Z,2.90
2023-05-06T22:08:27.485Z,2.50
2023-05-06T22:10:56.604Z,2.50
2023-05-06T22:13:26.727Z,2.43
2023-05-06T22:15:55.617Z,2.07
2023-05-06T22:18:24.038Z,2.43
2023-05-06T22:20:53.837Z,2.30
2023-05-06T22:23:23.810Z,2.40
2023-05-06T22:25:52.677Z,2.67
2023-05-06T22:28:21.753Z,2.33
2023-05-06T22:30:50.221Z,2.30
2023-05-06T22:33:18.671Z,2.40
2023-05-06T22:35:47.068Z,2.63
2023-05-06T22:38:16.853Z,2.80
2023-05-06T22:40:45.216Z,2.77
2023-05-06T22:43:13.670Z,2.90
2023-05-06T22:45:42.239Z,2.60
2023-05-06T22:48:10.919Z,2.73
2023-05-06T22:50:39.377Z,2.37
2023-05-06T22:53:15.111Z,2.10
2023-05-06T22:55:45.460Z,2.17
2023-05-06T22:58:13.905Z,2.37
2023-05-06T23:00:43.299Z,2.17
2023-05-06T23:03:11.783Z,3.50
2023-05-06T23:05:40.302Z,3.10
2023-05-06T23:08:08.750Z,2.90
2023-05-06T23:10:37.152Z,2.50
2023-05-06T23:13:07.097Z,2.23
2023-05-06T23:15:36.299Z,2.60
2023-05-06T23:18:04.785Z,2.57
2023-05-06T23:20:33.434Z,2.40
2023-05-06T23:23:01.831Z,2.10
2023-05-06T23:25:30.232Z,2.40
2023-05-06T23:27:58.643Z,2.30
2023-05-06T23:30:28.378Z,2.47
2023-05-06T23:32:56.764Z,2.10
2023-05-06T23:35:25.082Z,2.20
2023-05-06T23:37:53.461Z,2.00
2023-05-06T23:40:21.812Z,2.00
2023-05-06T23:42:50.136Z,2.17
2023-05-06T23:45:19.762Z,2.50
2023-05-06T23:47:49.585Z,2.30
2023-05-06T23:50:18.132Z,2.83
2023-05-06T23:52:46.508Z,2.40
2023-05-06T23:55:14.844Z,2.90
2023-05-06T23:57:43.186Z,2.37
